Archival Weather

Heathrow

London, United Kingdom (EGLL)

Report from: Thursday, September 21, 2023 10:50 AM BST
Current time: Saturday, March 2, 2024 9:08 AM GMT

Current weather – Weather history – Daily summaries
Weather forecast

Temperature16.0°C (60.8°F)
Dew point11.0°C (51.8°F)
Winds 9 kts (4.6 m/s, 10.4 mph) Vrb
Winds variableWinds variable from South-Southwest (210°) to West (280°)
Visibility6.2 mi. (10 km)
Clouds Sky clear
Altimeter29.41 in.Hg (996 mB)
Relative humidity72 %
Density altitude890 ft. (271 m)
Remarks Fully automated report
No clouds detected
Flight conditions Visual Meteorological Conditions
Raw dataEGLL 210950Z AUTO 24009KT 210V280 9999 NCD 16/11 Q0996
An error has occurred. This application may no longer respond until reloaded. Reload 🗙